sensor_id;sensor_type;location;lat;lon;timestamp;P1;durP1;ratioP1;P2;durP2;ratioP2
21010;SDS011;10663;42.714;23.274;2023-02-14T00:00:10;30.85;;;21.30;;
21010;SDS011;10663;42.714;23.274;2023-02-14T00:01:41;32.25;;;21.55;;
21010;SDS011;10663;42.714;23.274;2023-02-14T00:03:12;33.13;;;22.70;;
21010;SDS011;10663;42.714;23.274;2023-02-14T00:04:44;31.52;;;21.58;;
21010;SDS011;10663;42.714;23.274;2023-02-14T00:06:16;30.85;;;21.30;;
21010;SDS011;10663;42.714;23.274;2023-02-14T00:07:47;31.38;;;21.42;;
21010;SDS011;10663;42.714;23.274;2023-02-14T00:09:18;32.03;;;21.87;;
21010;SDS011;10663;42.714;23.274;2023-02-14T00:10:49;31.08;;;21.23;;
21010;SDS011;10663;42.714;23.274;2023-02-14T00:12:20;32.17;;;21.85;;
21010;SDS011;10663;42.714;23.274;2023-02-14T00:13:51;30.65;;;21.63;;
21010;SDS011;10663;42.714;23.274;2023-02-14T00:15:41;31.13;;;21.80;;
21010;SDS011;10663;42.714;23.274;2023-02-14T00:17:11;34.47;;;22.80;;
21010;SDS011;10663;42.714;23.274;2023-02-14T00:18:42;31.93;;;21.70;;
21010;SDS011;10663;42.714;23.274;2023-02-14T00:20:32;31.27;;;21.23;;
21010;SDS011;10663;42.714;23.274;2023-02-14T00:22:03;32.97;;;22.52;;
21010;SDS011;10663;42.714;23.274;2023-02-14T00:23:34;31.10;;;21.88;;
21010;SDS011;10663;42.714;23.274;2023-02-14T00:25:05;30.17;;;20.88;;
21010;SDS011;10663;42.714;23.274;2023-02-14T00:26:36;32.85;;;21.70;;
21010;SDS011;10663;42.714;23.274;2023-02-14T00:28:11;32.17;;;21.73;;
21010;SDS011;10663;42.714;23.274;2023-02-14T00:29:42;31.97;;;22.43;;
21010;SDS011;10663;42.714;23.274;2023-02-14T00:31:14;31.75;;;21.88;;
21010;SDS011;10663;42.714;23.274;2023-02-14T00:32:44;32.72;;;22.60;;
21010;SDS011;10663;42.714;23.274;2023-02-14T00:34:16;31.20;;;22.80;;
21010;SDS011;10663;42.714;23.274;2023-02-14T00:35:47;33.60;;;23.13;;
21010;SDS011;10663;42.714;23.274;2023-02-14T00:37:18;31.80;;;21.80;;
21010;SDS011;10663;42.714;23.274;2023-02-14T00:38:49;29.70;;;21.58;;
21010;SDS011;10663;42.714;23.274;2023-02-14T00:40:20;32.80;;;23.08;;
21010;SDS011;10663;42.714;23.274;2023-02-14T00:41:51;31.48;;;22.58;;
21010;SDS011;10663;42.714;23.274;2023-02-14T00:43:21;33.38;;;22.25;;
21010;SDS011;10663;42.714;23.274;2023-02-14T00:44:52;30.05;;;21.60;;
21010;SDS011;10663;42.714;23.274;2023-02-14T00:46:24;31.63;;;22.07;;
21010;SDS011;10663;42.714;23.274;2023-02-14T00:47:55;29.13;;;21.67;;
21010;SDS011;10663;42.714;23.274;2023-02-14T00:49:26;32.10;;;21.55;;
21010;SDS011;10663;42.714;23.274;2023-02-14T00:50:56;31.23;;;22.38;;
21010;SDS011;10663;42.714;23.274;2023-02-14T00:52:28;29.83;;;21.98;;
21010;SDS011;10663;42.714;23.274;2023-02-14T00:54:01;31.42;;;22.25;;
21010;SDS011;10663;42.714;23.274;2023-02-14T00:55:34;30.95;;;21.88;;
21010;SDS011;10663;42.714;23.274;2023-02-14T00:57:05;33.20;;;23.40;;
21010;SDS011;10663;42.714;23.274;2023-02-14T00:58:36;31.93;;;23.07;;
21010;SDS011;10663;42.714;23.274;2023-02-14T01:00:07;30.93;;;22.00;;
21010;SDS011;10663;42.714;23.274;2023-02-14T01:01:38;30.77;;;21.90;;
21010;SDS011;10663;42.714;23.274;2023-02-14T01:03:09;33.67;;;24.02;;
21010;SDS011;10663;42.714;23.274;2023-02-14T01:04:40;30.10;;;22.35;;
21010;SDS011;10663;42.714;23.274;2023-02-14T01:06:10;33.90;;;24.55;;
21010;SDS011;10663;42.714;23.274;2023-02-14T01:07:41;34.20;;;24.52;;
21010;SDS011;10663;42.714;23.274;2023-02-14T01:09:14;34.67;;;23.38;;
21010;SDS011;10663;42.714;23.274;2023-02-14T01:10:44;33.13;;;23.67;;
21010;SDS011;10663;42.714;23.274;2023-02-14T01:12:15;35.42;;;25.05;;
21010;SDS011;10663;42.714;23.274;2023-02-14T01:13:47;33.97;;;23.47;;
21010;SDS011;10663;42.714;23.274;2023-02-14T01:15:18;36.33;;;24.08;;
21010;SDS011;10663;42.714;23.274;2023-02-14T01:16:49;35.73;;;23.90;;
21010;SDS011;10663;42.714;23.274;2023-02-14T01:18:20;31.20;;;22.73;;
21010;SDS011;10663;42.714;23.274;2023-02-14T01:19:52;32.13;;;23.20;;
21010;SDS011;10663;42.714;23.274;2023-02-14T01:21:25;36.25;;;24.13;;
21010;SDS011;10663;42.714;23.274;2023-02-14T01:22:59;36.03;;;23.63;;
21010;SDS011;10663;42.714;23.274;2023-02-14T01:24:30;34.00;;;24.05;;
21010;SDS011;10663;42.714;23.274;2023-02-14T01:26:07;32.88;;;23.83;;
21010;SDS011;10663;42.714;23.274;2023-02-14T01:27:39;32.58;;;23.48;;
21010;SDS011;10663;42.714;23.274;2023-02-14T01:29:10;35.13;;;24.38;;
21010;SDS011;10663;42.714;23.274;2023-02-14T01:30:41;34.22;;;23.45;;
21010;SDS011;10663;42.714;23.274;2023-02-14T01:32:13;35.17;;;23.77;;
21010;SDS011;10663;42.714;23.274;2023-02-14T01:33:45;32.25;;;24.05;;
21010;SDS011;10663;42.714;23.274;2023-02-14T01:35:17;34.95;;;23.67;;
21010;SDS011;10663;42.714;23.274;2023-02-14T01:36:47;36.17;;;25.05;;
21010;SDS011;10663;42.714;23.274;2023-02-14T01:38:18;34.00;;;23.92;;
21010;SDS011;10663;42.714;23.274;2023-02-14T01:39:49;33.38;;;23.67;;
21010;SDS011;10663;42.714;23.274;2023-02-14T01:41:20;33.95;;;23.80;;
21010;SDS011;10663;42.714;23.274;2023-02-14T01:42:52;34.03;;;24.25;;
21010;SDS011;10663;42.714;23.274;2023-02-14T01:46:02;34.85;;;24.00;;
21010;SDS011;10663;42.714;23.274;2023-02-14T01:47:35;32.78;;;23.85;;
21010;SDS011;10663;42.714;23.274;2023-02-14T01:50:55;33.83;;;24.50;;
21010;SDS011;10663;42.714;23.274;2023-02-14T01:52:33;33.28;;;24.58;;
21010;SDS011;10663;42.714;23.274;2023-02-14T01:54:12;36.90;;;25.80;;
21010;SDS011;10663;42.714;23.274;2023-02-14T01:55:46;34.00;;;22.95;;
21010;SDS011;10663;42.714;23.274;2023-02-14T01:57:21;32.83;;;23.83;;
21010;SDS011;10663;42.714;23.274;2023-02-14T01:58:56;35.13;;;24.52;;
21010;SDS011;10663;42.714;23.274;2023-02-14T02:00:31;34.50;;;25.05;;
21010;SDS011;10663;42.714;23.274;2023-02-14T02:02:20;33.50;;;24.73;;
21010;SDS011;10663;42.714;23.274;2023-02-14T02:03:55;32.55;;;23.88;;
21010;SDS011;10663;42.714;23.274;2023-02-14T02:05:28;33.50;;;23.98;;
21010;SDS011;10663;42.714;23.274;2023-02-14T02:07:00;36.47;;;24.98;;
21010;SDS011;10663;42.714;23.274;2023-02-14T02:08:36;34.05;;;23.75;;
21010;SDS011;10663;42.714;23.274;2023-02-14T02:10:12;35.05;;;23.73;;
21010;SDS011;10663;42.714;23.274;2023-02-14T02:11:43;36.45;;;24.13;;
21010;SDS011;10663;42.714;23.274;2023-02-14T02:13:16;34.97;;;24.53;;
21010;SDS011;10663;42.714;23.274;2023-02-14T02:14:49;35.95;;;25.20;;
21010;SDS011;10663;42.714;23.274;2023-02-14T02:18:05;32.47;;;23.85;;
21010;SDS011;10663;42.714;23.274;2023-02-14T02:21:55;36.13;;;24.40;;
21010;SDS011;10663;42.714;23.274;2023-02-14T02:27:19;34.15;;;23.75;;
21010;SDS011;10663;42.714;23.274;2023-02-14T02:31:03;34.20;;;24.05;;
21010;SDS011;10663;42.714;23.274;2023-02-14T02:44:17;33.83;;;24.50;;
21010;SDS011;10663;42.714;23.274;2023-02-14T02:48:14;38.58;;;25.38;;
21010;SDS011;10663;42.714;23.274;2023-02-14T02:51:51;34.22;;;23.67;;
21010;SDS011;10663;42.714;23.274;2023-02-14T02:53:45;36.30;;;24.58;;
21010;SDS011;10663;42.714;23.274;2023-02-14T02:55:36;37.83;;;24.88;;
21010;SDS011;10663;42.714;23.274;2023-02-14T02:57:30;36.20;;;24.00;;
21010;SDS011;10663;42.714;23.274;2023-02-14T02:59:09;34.42;;;24.17;;
21010;SDS011;10663;42.714;23.274;2023-02-14T03:00:53;33.00;;;23.23;;
21010;SDS011;10663;42.714;23.274;2023-02-14T03:02:27;35.65;;;24.33;;
21010;SDS011;10663;42.714;23.274;2023-02-14T03:04:05;31.90;;;22.60;;
21010;SDS011;10663;42.714;23.274;2023-02-14T03:05:58;32.70;;;22.92;;
21010;SDS011;10663;42.714;23.274;2023-02-14T03:07:31;35.40;;;23.85;;
21010;SDS011;10663;42.714;23.274;2023-02-14T03:09:10;33.42;;;22.20;;
21010;SDS011;10663;42.714;23.274;2023-02-14T03:10:42;32.15;;;22.90;;
21010;SDS011;10663;42.714;23.274;2023-02-14T03:18:06;31.48;;;21.10;;
21010;SDS011;10663;42.714;23.274;2023-02-14T03:20:06;33.50;;;22.88;;
21010;SDS011;10663;42.714;23.274;2023-02-14T03:27:32;30.75;;;21.27;;
21010;SDS011;10663;42.714;23.274;2023-02-14T03:29:11;29.48;;;20.98;;
21010;SDS011;10663;42.714;23.274;2023-02-14T03:32:38;31.95;;;22.65;;
21010;SDS011;10663;42.714;23.274;2023-02-14T03:34:26;35.15;;;22.58;;
21010;SDS011;10663;42.714;23.274;2023-02-14T03:36:49;30.50;;;21.45;;
21010;SDS011;10663;42.714;23.274;2023-02-14T03:38:07;31.00;;;21.40;;
21010;SDS011;10663;42.714;23.274;2023-02-14T03:39:42;33.10;;;21.88;;
21010;SDS011;10663;42.714;23.274;2023-02-14T03:41:25;32.13;;;22.13;;
21010;SDS011;10663;42.714;23.274;2023-02-14T03:43:00;32.08;;;22.05;;
21010;SDS011;10663;42.714;23.274;2023-02-14T03:44:38;32.67;;;21.60;;
21010;SDS011;10663;42.714;23.274;2023-02-14T03:47:49;34.05;;;21.92;;
21010;SDS011;10663;42.714;23.274;2023-02-14T03:49:22;32.80;;;22.67;;
21010;SDS011;10663;42.714;23.274;2023-02-14T03:50:59;33.15;;;21.70;;
21010;SDS011;10663;42.714;23.274;2023-02-14T03:52:32;27.98;;;20.63;;
21010;SDS011;10663;42.714;23.274;2023-02-14T03:54:06;31.02;;;21.00;;
21010;SDS011;10663;42.714;23.274;2023-02-14T03:55:42;31.38;;;21.27;;
21010;SDS011;10663;42.714;23.274;2023-02-14T03:57:22;32.88;;;21.40;;
21010;SDS011;10663;42.714;23.274;2023-02-14T03:58:57;31.90;;;21.10;;
21010;SDS011;10663;42.714;23.274;2023-02-14T04:00:36;33.35;;;21.25;;
21010;SDS011;10663;42.714;23.274;2023-02-14T04:02:12;32.50;;;20.98;;
21010;SDS011;10663;42.714;23.274;2023-02-14T04:03:48;28.97;;;20.13;;
21010;SDS011;10663;42.714;23.274;2023-02-14T04:05:22;30.48;;;21.17;;
21010;SDS011;10663;42.714;23.274;2023-02-14T04:06:55;30.55;;;19.80;;
21010;SDS011;10663;42.714;23.274;2023-02-14T04:08:27;32.25;;;21.48;;
21010;SDS011;10663;42.714;23.274;2023-02-14T04:09:59;31.48;;;19.77;;
21010;SDS011;10663;42.714;23.274;2023-02-14T04:11:30;32.60;;;21.40;;
21010;SDS011;10663;42.714;23.274;2023-02-14T04:13:04;28.02;;;20.00;;
21010;SDS011;10663;42.714;23.274;2023-02-14T04:14:35;29.50;;;20.23;;
21010;SDS011;10663;42.714;23.274;2023-02-14T04:16:07;32.77;;;20.73;;
21010;SDS011;10663;42.714;23.274;2023-02-14T04:17:38;34.40;;;22.10;;
21010;SDS011;10663;42.714;23.274;2023-02-14T04:19:27;32.58;;;20.67;;
21010;SDS011;10663;42.714;23.274;2023-02-14T04:20:58;29.50;;;20.30;;
21010;SDS011;10663;42.714;23.274;2023-02-14T04:22:29;32.80;;;20.83;;
21010;SDS011;10663;42.714;23.274;2023-02-14T04:23:59;31.87;;;19.53;;
21010;SDS011;10663;42.714;23.274;2023-02-14T04:25:30;30.50;;;20.50;;
21010;SDS011;10663;42.714;23.274;2023-02-14T04:27:01;33.80;;;21.33;;
21010;SDS011;10663;42.714;23.274;2023-02-14T04:28:41;28.48;;;20.25;;
21010;SDS011;10663;42.714;23.274;2023-02-14T04:30:12;30.37;;;21.13;;
21010;SDS011;10663;42.714;23.274;2023-02-14T04:31:44;30.17;;;20.05;;
21010;SDS011;10663;42.714;23.274;2023-02-14T04:33:14;28.83;;;20.67;;
21010;SDS011;10663;42.714;23.274;2023-02-14T04:34:45;30.52;;;19.73;;
21010;SDS011;10663;42.714;23.274;2023-02-14T04:36:16;29.77;;;20.30;;
21010;SDS011;10663;42.714;23.274;2023-02-14T04:37:47;30.13;;;20.73;;
21010;SDS011;10663;42.714;23.274;2023-02-14T04:39:18;31.90;;;21.30;;
21010;SDS011;10663;42.714;23.274;2023-02-14T04:40:49;33.80;;;21.47;;
21010;SDS011;10663;42.714;23.274;2023-02-14T04:42:20;30.25;;;21.55;;
21010;SDS011;10663;42.714;23.274;2023-02-14T04:43:51;30.33;;;20.20;;
21010;SDS011;10663;42.714;23.274;2023-02-14T04:45:22;30.13;;;20.97;;
21010;SDS011;10663;42.714;23.274;2023-02-14T04:46:53;30.47;;;20.20;;
21010;SDS011;10663;42.714;23.274;2023-02-14T04:48:24;27.88;;;19.95;;
21010;SDS011;10663;42.714;23.274;2023-02-14T04:49:55;29.73;;;19.83;;
21010;SDS011;10663;42.714;23.274;2023-02-14T04:51:26;30.45;;;20.10;;
21010;SDS011;10663;42.714;23.274;2023-02-14T04:52:57;30.88;;;20.05;;
21010;SDS011;10663;42.714;23.274;2023-02-14T04:54:28;26.40;;;17.98;;
21010;SDS011;10663;42.714;23.274;2023-02-14T04:55:59;31.52;;;19.73;;
21010;SDS011;10663;42.714;23.274;2023-02-14T04:57:30;28.00;;;19.45;;
21010;SDS011;10663;42.714;23.274;2023-02-14T04:59:01;26.17;;;18.00;;
21010;SDS011;10663;42.714;23.274;2023-02-14T05:00:32;29.00;;;18.98;;
21010;SDS011;10663;42.714;23.274;2023-02-14T05:02:03;27.08;;;20.05;;
21010;SDS011;10663;42.714;23.274;2023-02-14T05:03:34;28.23;;;19.60;;
21010;SDS011;10663;42.714;23.274;2023-02-14T05:05:05;30.00;;;20.23;;
21010;SDS011;10663;42.714;23.274;2023-02-14T05:06:36;29.90;;;19.65;;
21010;SDS011;10663;42.714;23.274;2023-02-14T05:08:07;27.75;;;18.77;;
21010;SDS011;10663;42.714;23.274;2023-02-14T05:09:38;29.23;;;19.03;;
21010;SDS011;10663;42.714;23.274;2023-02-14T05:11:08;28.93;;;19.50;;
21010;SDS011;10663;42.714;23.274;2023-02-14T05:12:39;29.73;;;19.13;;
21010;SDS011;10663;42.714;23.274;2023-02-14T05:14:10;26.98;;;18.05;;
21010;SDS011;10663;42.714;23.274;2023-02-14T05:15:43;29.17;;;18.38;;
21010;SDS011;10663;42.714;23.274;2023-02-14T05:17:14;27.85;;;17.80;;
21010;SDS011;10663;42.714;23.274;2023-02-14T05:18:45;25.48;;;18.30;;
21010;SDS011;10663;42.714;23.274;2023-02-14T05:20:16;25.75;;;18.20;;
21010;SDS011;10663;42.714;23.274;2023-02-14T05:21:47;26.48;;;17.90;;
21010;SDS011;10663;42.714;23.274;2023-02-14T05:23:18;28.45;;;18.58;;
21010;SDS011;10663;42.714;23.274;2023-02-14T05:24:50;27.25;;;18.02;;
21010;SDS011;10663;42.714;23.274;2023-02-14T05:26:20;26.23;;;17.98;;
21010;SDS011;10663;42.714;23.274;2023-02-14T05:27:51;28.33;;;17.95;;
21010;SDS011;10663;42.714;23.274;2023-02-14T05:29:22;27.58;;;17.90;;
21010;SDS011;10663;42.714;23.274;2023-02-14T05:30:53;26.85;;;17.98;;
21010;SDS011;10663;42.714;23.274;2023-02-14T05:32:26;25.67;;;18.27;;
21010;SDS011;10663;42.714;23.274;2023-02-14T05:33:57;26.42;;;17.50;;
21010;SDS011;10663;42.714;23.274;2023-02-14T05:35:28;28.05;;;18.50;;
21010;SDS011;10663;42.714;23.274;2023-02-14T05:36:59;26.47;;;17.50;;
21010;SDS011;10663;42.714;23.274;2023-02-14T05:38:31;27.02;;;18.10;;
21010;SDS011;10663;42.714;23.274;2023-02-14T05:40:04;25.70;;;18.05;;
21010;SDS011;10663;42.714;23.274;2023-02-14T05:41:36;23.70;;;17.38;;
21010;SDS011;10663;42.714;23.274;2023-02-14T05:43:07;26.70;;;18.40;;
21010;SDS011;10663;42.714;23.274;2023-02-14T05:44:38;29.50;;;18.67;;
21010;SDS011;10663;42.714;23.274;2023-02-14T05:46:09;27.58;;;17.73;;
21010;SDS011;10663;42.714;23.274;2023-02-14T05:47:40;26.25;;;17.83;;
21010;SDS011;10663;42.714;23.274;2023-02-14T05:49:10;28.75;;;18.08;;
21010;SDS011;10663;42.714;23.274;2023-02-14T05:50:41;25.87;;;18.23;;
21010;SDS011;10663;42.714;23.274;2023-02-14T05:52:14;27.37;;;18.47;;
21010;SDS011;10663;42.714;23.274;2023-02-14T05:53:45;29.27;;;18.77;;
21010;SDS011;10663;42.714;23.274;2023-02-14T05:55:16;28.85;;;17.70;;
21010;SDS011;10663;42.714;23.274;2023-02-14T05:56:47;29.80;;;18.90;;
21010;SDS011;10663;42.714;23.274;2023-02-14T05:58:17;27.25;;;18.08;;
21010;SDS011;10663;42.714;23.274;2023-02-14T05:59:48;26.33;;;17.65;;
21010;SDS011;10663;42.714;23.274;2023-02-14T06:01:19;26.88;;;18.55;;
21010;SDS011;10663;42.714;23.274;2023-02-14T06:02:50;28.02;;;18.80;;
21010;SDS011;10663;42.714;23.274;2023-02-14T06:04:21;25.52;;;18.45;;
21010;SDS011;10663;42.714;23.274;2023-02-14T06:05:52;25.52;;;17.58;;
21010;SDS011;10663;42.714;23.274;2023-02-14T06:07:23;24.52;;;17.85;;
21010;SDS011;10663;42.714;23.274;2023-02-14T06:08:54;27.50;;;18.70;;
21010;SDS011;10663;42.714;23.274;2023-02-14T06:10:25;28.17;;;19.05;;
21010;SDS011;10663;42.714;23.274;2023-02-14T06:11:55;27.75;;;18.75;;
21010;SDS011;10663;42.714;23.274;2023-02-14T06:13:26;28.10;;;19.05;;
21010;SDS011;10663;42.714;23.274;2023-02-14T06:14:57;25.27;;;19.38;;
21010;SDS011;10663;42.714;23.274;2023-02-14T06:16:28;28.70;;;18.42;;
21010;SDS011;10663;42.714;23.274;2023-02-14T06:17:59;27.73;;;20.15;;
21010;SDS011;10663;42.714;23.274;2023-02-14T06:19:30;28.50;;;20.20;;
21010;SDS011;10663;42.714;23.274;2023-02-14T06:21:01;27.20;;;19.00;;
21010;SDS011;10663;42.714;23.274;2023-02-14T06:22:32;26.67;;;19.20;;
21010;SDS011;10663;42.714;23.274;2023-02-14T06:24:03;25.50;;;19.48;;
21010;SDS011;10663;42.714;23.274;2023-02-14T06:25:37;27.60;;;18.30;;
21010;SDS011;10663;42.714;23.274;2023-02-14T06:27:08;28.17;;;20.52;;
21010;SDS011;10663;42.714;23.274;2023-02-14T06:28:38;26.63;;;19.23;;
21010;SDS011;10663;42.714;23.274;2023-02-14T06:30:09;28.63;;;19.67;;
21010;SDS011;10663;42.714;23.274;2023-02-14T06:31:41;27.50;;;19.63;;
21010;SDS011;10663;42.714;23.274;2023-02-14T06:33:12;25.60;;;19.33;;
21010;SDS011;10663;42.714;23.274;2023-02-14T06:34:42;26.70;;;21.03;;
21010;SDS011;10663;42.714;23.274;2023-02-14T06:36:15;29.05;;;20.63;;
21010;SDS011;10663;42.714;23.274;2023-02-14T06:37:46;29.77;;;19.55;;
21010;SDS011;10663;42.714;23.274;2023-02-14T06:39:17;30.90;;;21.52;;
21010;SDS011;10663;42.714;23.274;2023-02-14T06:40:47;30.35;;;21.10;;
21010;SDS011;10663;42.714;23.274;2023-02-14T06:42:18;27.33;;;21.15;;
21010;SDS011;10663;42.714;23.274;2023-02-14T06:43:49;29.73;;;20.95;;
21010;SDS011;10663;42.714;23.274;2023-02-14T06:45:20;30.20;;;21.35;;
21010;SDS011;10663;42.714;23.274;2023-02-14T06:46:51;28.98;;;21.17;;
21010;SDS011;10663;42.714;23.274;2023-02-14T06:48:22;31.38;;;21.95;;
21010;SDS011;10663;42.714;23.274;2023-02-14T06:49:53;32.00;;;21.95;;
21010;SDS011;10663;42.714;23.274;2023-02-14T06:51:24;31.33;;;21.73;;
21010;SDS011;10663;42.714;23.274;2023-02-14T06:52:54;30.98;;;23.10;;
21010;SDS011;10663;42.714;23.274;2023-02-14T06:54:25;31.45;;;22.55;;
21010;SDS011;10663;42.714;23.274;2023-02-14T06:55:56;30.05;;;21.33;;
21010;SDS011;10663;42.714;23.274;2023-02-14T06:57:27;33.22;;;22.50;;
21010;SDS011;10663;42.714;23.274;2023-02-14T06:58:58;33.60;;;22.63;;
21010;SDS011;10663;42.714;23.274;2023-02-14T07:00:29;32.95;;;22.30;;
21010;SDS011;10663;42.714;23.274;2023-02-14T07:01:59;29.20;;;21.38;;
21010;SDS011;10663;42.714;23.274;2023-02-14T07:03:30;29.77;;;21.23;;
21010;SDS011;10663;42.714;23.274;2023-02-14T07:05:01;28.10;;;21.75;;
21010;SDS011;10663;42.714;23.274;2023-02-14T07:06:32;30.58;;;22.40;;
21010;SDS011;10663;42.714;23.274;2023-02-14T07:08:03;29.13;;;20.25;;
21010;SDS011;10663;42.714;23.274;2023-02-14T07:09:34;34.78;;;23.27;;
21010;SDS011;10663;42.714;23.274;2023-02-14T07:11:05;32.65;;;21.88;;
21010;SDS011;10663;42.714;23.274;2023-02-14T07:12:35;32.88;;;22.05;;
21010;SDS011;10663;42.714;23.274;2023-02-14T07:14:08;31.23;;;22.50;;
21010;SDS011;10663;42.714;23.274;2023-02-14T07:15:39;31.75;;;21.95;;
21010;SDS011;10663;42.714;23.274;2023-02-14T07:17:10;32.35;;;21.75;;
21010;SDS011;10663;42.714;23.274;2023-02-14T07:18:41;35.90;;;23.77;;
21010;SDS011;10663;42.714;23.274;2023-02-14T07:20:12;35.35;;;22.92;;
21010;SDS011;10663;42.714;23.274;2023-02-14T07:21:43;34.30;;;23.10;;
21010;SDS011;10663;42.714;23.274;2023-02-14T07:23:13;37.67;;;24.13;;
21010;SDS011;10663;42.714;23.274;2023-02-14T07:24:44;35.50;;;22.95;;
21010;SDS011;10663;42.714;23.274;2023-02-14T07:26:15;37.42;;;24.58;;
21010;SDS011;10663;42.714;23.274;2023-02-14T07:27:47;35.00;;;23.40;;
21010;SDS011;10663;42.714;23.274;2023-02-14T07:29:18;36.45;;;24.00;;
21010;SDS011;10663;42.714;23.274;2023-02-14T07:30:49;34.00;;;22.85;;
21010;SDS011;10663;42.714;23.274;2023-02-14T07:32:20;37.13;;;23.58;;
21010;SDS011;10663;42.714;23.274;2023-02-14T07:33:52;35.72;;;25.17;;
21010;SDS011;10663;42.714;23.274;2023-02-14T07:35:23;33.90;;;24.60;;
21010;SDS011;10663;42.714;23.274;2023-02-14T07:36:54;37.03;;;24.20;;
21010;SDS011;10663;42.714;23.274;2023-02-14T07:38:25;36.47;;;25.73;;
21010;SDS011;10663;42.714;23.274;2023-02-14T07:39:59;39.45;;;25.48;;
21010;SDS011;10663;42.714;23.274;2023-02-14T07:41:31;38.42;;;26.83;;
21010;SDS011;10663;42.714;23.274;2023-02-14T07:43:02;35.20;;;24.15;;
21010;SDS011;10663;42.714;23.274;2023-02-14T07:44:33;35.77;;;24.60;;
21010;SDS011;10663;42.714;23.274;2023-02-14T07:46:04;36.67;;;24.30;;
21010;SDS011;10663;42.714;23.274;2023-02-14T07:47:35;36.72;;;24.42;;
21010;SDS011;10663;42.714;23.274;2023-02-14T07:49:06;37.30;;;24.88;;
21010;SDS011;10663;42.714;23.274;2023-02-14T07:50:37;37.17;;;24.85;;
21010;SDS011;10663;42.714;23.274;2023-02-14T07:52:08;36.42;;;24.33;;
21010;SDS011;10663;42.714;23.274;2023-02-14T07:53:39;35.80;;;24.07;;
21010;SDS011;10663;42.714;23.274;2023-02-14T07:55:10;37.42;;;24.02;;
21010;SDS011;10663;42.714;23.274;2023-02-14T07:56:41;35.78;;;23.08;;
21010;SDS011;10663;42.714;23.274;2023-02-14T07:58:12;34.40;;;23.15;;
21010;SDS011;10663;42.714;23.274;2023-02-14T07:59:43;36.25;;;24.75;;
21010;SDS011;10663;42.714;23.274;2023-02-14T08:01:14;36.88;;;25.08;;
21010;SDS011;10663;42.714;23.274;2023-02-14T08:02:45;35.90;;;23.50;;
21010;SDS011;10663;42.714;23.274;2023-02-14T08:04:16;35.20;;;23.52;;
21010;SDS011;10663;42.714;23.274;2023-02-14T08:05:48;34.65;;;24.05;;
21010;SDS011;10663;42.714;23.274;2023-02-14T08:07:26;34.75;;;23.23;;
21010;SDS011;10663;42.714;23.274;2023-02-14T08:08:57;35.72;;;24.05;;
21010;SDS011;10663;42.714;23.274;2023-02-14T08:10:28;41.63;;;26.60;;
21010;SDS011;10663;42.714;23.274;2023-02-14T08:11:59;36.07;;;25.70;;
21010;SDS011;10663;42.714;23.274;2023-02-14T08:13:49;34.47;;;23.30;;
21010;SDS011;10663;42.714;23.274;2023-02-14T08:15:20;35.03;;;23.35;;
21010;SDS011;10663;42.714;23.274;2023-02-14T08:17:09;36.27;;;23.30;;
21010;SDS011;10663;42.714;23.274;2023-02-14T08:18:42;36.72;;;24.17;;
21010;SDS011;10663;42.714;23.274;2023-02-14T08:20:14;35.97;;;23.60;;
21010;SDS011;10663;42.714;23.274;2023-02-14T08:21:45;34.22;;;23.92;;
21010;SDS011;10663;42.714;23.274;2023-02-14T08:23:17;33.03;;;22.07;;
21010;SDS011;10663;42.714;23.274;2023-02-14T08:24:49;35.88;;;24.33;;
21010;SDS011;10663;42.714;23.274;2023-02-14T08:26:20;40.28;;;25.25;;
21010;SDS011;10663;42.714;23.274;2023-02-14T08:27:51;37.95;;;22.85;;
21010;SDS011;10663;42.714;23.274;2023-02-14T08:29:24;31.15;;;22.10;;
21010;SDS011;10663;42.714;23.274;2023-02-14T08:30:55;34.20;;;21.27;;
21010;SDS011;10663;42.714;23.274;2023-02-14T08:32:26;32.28;;;22.83;;
21010;SDS011;10663;42.714;23.274;2023-02-14T08:33:57;31.23;;;21.15;;
21010;SDS011;10663;42.714;23.274;2023-02-14T08:35:28;31.15;;;20.70;;
21010;SDS011;10663;42.714;23.274;2023-02-14T08:36:59;28.45;;;18.38;;
21010;SDS011;10663;42.714;23.274;2023-02-14T08:38:29;30.27;;;21.23;;
21010;SDS011;10663;42.714;23.274;2023-02-14T08:40:00;29.52;;;20.08;;
21010;SDS011;10663;42.714;23.274;2023-02-14T08:41:31;28.48;;;19.63;;
21010;SDS011;10663;42.714;23.274;2023-02-14T08:43:03;31.53;;;20.60;;
21010;SDS011;10663;42.714;23.274;2023-02-14T08:44:35;31.63;;;21.30;;
21010;SDS011;10663;42.714;23.274;2023-02-14T08:46:06;32.45;;;20.70;;
21010;SDS011;10663;42.714;23.274;2023-02-14T08:47:37;27.52;;;20.10;;
21010;SDS011;10663;42.714;23.274;2023-02-14T08:49:09;33.63;;;21.42;;
21010;SDS011;10663;42.714;23.274;2023-02-14T08:50:41;32.90;;;21.73;;
21010;SDS011;10663;42.714;23.274;2023-02-14T08:52:12;31.27;;;20.70;;
21010;SDS011;10663;42.714;23.274;2023-02-14T08:53:43;31.85;;;21.10;;
21010;SDS011;10663;42.714;23.274;2023-02-14T08:55:15;28.60;;;19.23;;
21010;SDS011;10663;42.714;23.274;2023-02-14T08:56:47;33.43;;;21.63;;
21010;SDS011;10663;42.714;23.274;2023-02-14T08:58:19;28.93;;;20.03;;
21010;SDS011;10663;42.714;23.274;2023-02-14T08:59:50;33.15;;;20.90;;
21010;SDS011;10663;42.714;23.274;2023-02-14T09:01:21;33.63;;;21.07;;
21010;SDS011;10663;42.714;23.274;2023-02-14T09:02:52;33.33;;;23.23;;
21010;SDS011;10663;42.714;23.274;2023-02-14T09:04:22;31.80;;;21.37;;
21010;SDS011;10663;42.714;23.274;2023-02-14T09:05:54;34.42;;;23.48;;
21010;SDS011;10663;42.714;23.274;2023-02-14T09:07:25;37.88;;;23.38;;
21010;SDS011;10663;42.714;23.274;2023-02-14T09:08:56;38.97;;;24.58;;
21010;SDS011;10663;42.714;23.274;2023-02-14T09:10:27;36.45;;;23.75;;
21010;SDS011;10663;42.714;23.274;2023-02-14T09:12:01;33.78;;;22.73;;
21010;SDS011;10663;42.714;23.274;2023-02-14T09:13:35;34.55;;;21.88;;
21010;SDS011;10663;42.714;23.274;2023-02-14T09:15:08;36.58;;;23.77;;
21010;SDS011;10663;42.714;23.274;2023-02-14T09:16:39;37.20;;;23.70;;
21010;SDS011;10663;42.714;23.274;2023-02-14T09:18:10;38.93;;;22.40;;
21010;SDS011;10663;42.714;23.274;2023-02-14T09:19:41;33.75;;;22.88;;
21010;SDS011;10663;42.714;23.274;2023-02-14T09:21:13;36.58;;;23.35;;
21010;SDS011;10663;42.714;23.274;2023-02-14T09:22:46;35.22;;;22.42;;
21010;SDS011;10663;42.714;23.274;2023-02-14T09:24:17;37.40;;;24.08;;
21010;SDS011;10663;42.714;23.274;2023-02-14T09:25:48;37.47;;;24.73;;
21010;SDS011;10663;42.714;23.274;2023-02-14T09:27:19;33.60;;;22.80;;
21010;SDS011;10663;42.714;23.274;2023-02-14T09:28:50;36.10;;;23.63;;
21010;SDS011;10663;42.714;23.274;2023-02-14T09:30:21;38.10;;;24.17;;
21010;SDS011;10663;42.714;23.274;2023-02-14T09:31:52;40.33;;;24.17;;
21010;SDS011;10663;42.714;23.274;2023-02-14T09:33:27;36.42;;;24.10;;
21010;SDS011;10663;42.714;23.274;2023-02-14T09:35:16;35.47;;;22.98;;
21010;SDS011;10663;42.714;23.274;2023-02-14T09:37:06;37.88;;;23.60;;
21010;SDS011;10663;42.714;23.274;2023-02-14T09:38:58;39.40;;;24.98;;